arxmliv
arxmliv build tool
 
KWARC group
LaTeXML
About
   
 

Detailed info

Back to Homepage

List of missing_macros

No. Date Filename num_warningnum_errornum_xmargok_xmargnum_xmathok_xmathMissing macros
127201 2013-03-07 02:17:10 /0506/cond-mat.0506703 030000[\extrasenglish, \dateenglish, \captionsenglish].
127202 2013-03-07 02:16:59 /0506/cond-mat.0506689 180000[\kword, \abst, \inst, \citen].
127203 2013-03-07 02:16:52 /0506/cond-mat.0506690 910000[\QATOPD].
127204 2013-03-07 02:16:51 /0506/cond-mat.0506686 610000[\psfrag].
127205 2013-03-07 02:16:04 /0506/cond-mat.0506649 13170000[\qline, {pspicture}, \psplot, \psset, \psaxes, \pscustom, \fileplot, \rput, \psline, \grestore, \lightgray, \gsave]; 1 missing file[pst-all.sty].
127206 2013-03-07 02:16:04 /0506/cond-mat.0506652 64210000[\psfrag].
127207 2013-03-07 02:15:52 /0506/cond-mat.0506666 030000[\extrasenglish, \dateenglish, \captionsenglish].
127208 2013-03-07 02:15:51 /0506/cond-mat.0506639 1410000[\theappendix].
127209 2013-03-07 02:15:33 /0506/cond-mat.0506636 1010000[\theappendix].
127210 2013-03-07 02:14:42 /0506/cond-mat.0506614 040000[\extrasenglish, \dateenglish, \captionsenglish]; 1 missing file[tables.tex].
127211 2013-03-07 02:14:21 /0506/cond-mat.0506626 150000[\address, \sep, \PACS, {frontmatter}, {keyword}]; 1 missing file[PHYEAUTH.cls].
127212 2013-03-07 02:14:05 /0506/cond-mat.0506609 030000[\extrasenglish, \dateenglish, \captionsenglish].
127213 2013-03-07 02:13:53 /0506/cond-mat.0506616 0100000[\email, \psfrag, \@affiliation].
127214 2013-03-07 02:13:13 /0506/cond-mat.0506593 1440000[\kword, \abst, \inst, \recdate].
127215 2013-03-07 02:13:06 /0506/cond-mat.0506574 510000[\hexagon].
127216 2013-03-07 02:12:33 /0506/cond-mat.0506568 37180000[{acknowledgments}, \ls, \iffontfound, \ifCUPmtlplainloaded, \affiliation, \ns, \pagerange, \pubyear, \checkfont]; 1 missing file[jfm.cls].
127217 2013-03-07 02:12:24 /0506/cond-mat.0506554 1710000[\footrulewidth].
127218 2013-03-07 02:12:07 /0506/cond-mat.0506541 430000[\midrule, \toprule, \bottomrule].
127219 2013-03-07 02:11:07 /0506/cond-mat.0506534 670000[\ri, \re, \affiliation, \const, \3, \rd, {acknowledgements}].
127220 2013-03-07 02:10:43 /0506/cond-mat.0506521 2530000[\PACS, \eqsec]; 1 missing file[size11.clo.sty].
127221 2013-03-07 02:09:56 /0506/cond-mat.0506512 030000[\extrasenglish, \dateenglish, \captionsenglish].
127222 2013-03-07 02:07:50 /0506/cond-mat.0506481 1460000[\includegraphics, \kword, \abst, \inst]; 1 missing file[jjap2.cls].
127223 2013-03-07 02:06:27 /0506/cond-mat.0506440 320000[\layoutstyle, \classification].
127224 2013-03-07 02:05:49 /0506/cond-mat.0506436 010000[\psfrag].
127225 2013-03-07 02:05:45 /0506/cond-mat.0506423 1310000[\varotimes].
127226 2013-03-07 02:05:12 /0506/cond-mat.0506406 030000[\extrasenglish, \dateenglish, \captionsenglish].
127227 2013-03-07 02:05:02 /0506/cond-mat.0506412 1620000[\toctitle]; 1 missing file[taphys.sty].
127228 2013-03-07 02:04:23 /0506/cond-mat.0506401 010000[\theappendix].
127229 2013-03-07 02:04:11 /0506/cond-mat.0506381 180000[\catchline, {history}, \psfig, \revised, \refcite, \keywords, \received]; 1 missing file[ws.sty].
127230 2013-03-07 02:03:56 /0506/cond-mat.0506382 030000[{theacknowledgments}, \layoutstyle, \classification].
127231 2013-03-07 02:03:46 /0506/cond-mat.0506391 150000[\address, \sodtitle, \lat, \PACS, \rtitle].
127232 2013-03-07 02:03:45 /0506/cond-mat.0506368 210000[\psfrag].
127233 2013-03-07 02:03:31 /0506/cond-mat.0506372 440000[\kword, \abst, \inst, \recdate].
127234 2013-03-07 02:03:24 /0506/cond-mat.0506379 150000[\@affiliation, \onefigure, \stars].
127235 2013-03-07 02:03:13 /0506/cond-mat.0506375 030000[\extrasenglish, \dateenglish, \captionsenglish].
127236 2013-03-07 02:03:04 /0506/cond-mat.0506356 030000[\extrasenglish, \dateenglish, \captionsenglish].
127237 2013-03-07 02:02:43 /0506/cond-mat.0506363 090000[\email, \@affiliation, \upd, \etal].
127238 2013-03-07 02:02:21 /0506/cond-mat.0506355 110000[\psfrag].
127239 2013-03-07 02:02:06 /0506/cond-mat.0506327 4710000[\citen].
127240 2013-03-07 02:01:42 /0506/cond-mat.0506330 710000[\psfrag].
127241 2013-03-07 02:01:16 /0506/cond-mat.0506320 4820000[\geqslant, \leqslant].
127242 2013-03-07 02:01:12 /0506/cond-mat.0506336 1010000[\psfrag].
127243 2013-03-07 01:59:49 /0506/cond-mat.0506303 230000[\email, \@affiliation].
127244 2013-03-07 01:59:43 /0506/cond-mat.0506311 860000[\kword, \abst, \inst, \citen].
127245 2013-03-07 01:58:17 /0506/cond-mat.0506281 7130000[\bm, \doi, \jvol, \issn, \tbl, \jyear, \colrule, \jmonth, \botrule, \jnum, \toprule, \issnp, \received]; 1 missing file[gPHT2e.cls].
127246 2013-03-07 01:58:12 /0506/cond-mat.0506284 010000[\unit].
127247 2013-03-07 01:58:07 /0506/cond-mat.0506270 4190000[\epsfig, \MakeTitel]; 1 missing file[ferienschule_04.sty].
127248 2013-03-07 01:58:05 /0506/cond-mat.0506283 110000[\unit].
127249 2013-03-07 01:58:05 /0506/cond-mat.0506285 510000[\unit].
127250 2013-03-07 01:57:55 /0506/cond-mat.0506289 1150000[\psfrag, \@affiliation].
127251 2013-03-07 01:56:19 /0506/cond-mat.0506240 1450000[\kword, \abst, \inst, \recdate, \mib].
127252 2013-03-07 01:56:03 /0506/cond-mat.0506253 7380000[\tocauthor, \thechapter, \@currentID, \authorafterheading, \for].
127253 2013-03-07 01:55:37 /0506/cond-mat.0506254 450000[\citeauthoryear, \citeyear, \shortcite]; 3 missing files[narms2.cls, chikako.sty, timesmt.sty].
127254 2013-03-07 01:55:31 /0506/cond-mat.0506255 140000[\citeauthoryear, \shortcite]; 3 missing files[narms2.cls, chikako.sty, timesmt.sty].
127255 2013-03-07 01:55:04 /0506/cond-mat.0506243 170000[\includegraphics, \rauthor, \address, \lat, \D, \PACS, \rtitle]; 1 missing file[usjetpl.cls].
127256 2013-03-07 01:54:39 /0506/cond-mat.0506211 220000[\epsfile]; 1 missing file[epsbox.sty].
127257 2013-03-07 01:54:34 /0506/cond-mat.0506215 080000[\sodauthor, \rauthor, \address, \sodtitle, \dates, \lat, \PACS, \rtitle].
127258 2013-03-07 01:53:17 /0506/cond-mat.0506186 330000[\@affiliation].
127259 2013-03-07 01:53:04 /0506/cond-mat.0506173 1060000[\@affiliation].
127260 2013-03-07 01:52:17 /0506/cond-mat.0506151 650000[\kword, \abst, \inst, \recdate, \citen].
127261 2013-03-07 01:52:15 /0506/cond-mat.0506152 480000[\euro, \pacs, \inst, \institute, \Date].
127262 2013-03-07 01:52:11 /0506/cond-mat.0506155 110000[\psfrag].
127263 2013-03-07 01:51:51 /0506/cond-mat.0506035 10230000[\address, \runauthor, \runtitle].
127264 2013-03-07 01:51:25 /0506/cond-mat.0506090 040000[\extrasenglish, \noextrasenglish, \dateenglish, \captionsenglish].
127265 2013-03-07 01:50:54 /0506/cond-mat.0506101 510000[\tsum].
127266 2013-03-07 01:50:15 /0506/cond-mat.0506084 010000[\listfiles].
127267 2013-03-07 01:50:00 /0506/cond-mat.0506088 030000[\extrasenglish, \dateenglish, \captionsenglish].
127268 2013-03-07 01:49:59 /0506/cond-mat.0506089 030000[\extrasenglish, \dateenglish, \captionsenglish].
127269 2013-03-07 01:49:07 /0506/cond-mat.0506066 130000[\dospecials, \epsffileline].
127270 2013-03-07 01:48:28 /0506/cond-mat.0506040 030000[\extrasenglish, \dateenglish, \captionsenglish].
127271 2013-03-07 01:48:28 /0506/cond-mat.0506042 140000[\kword, \abst, \inst, \recdate].
127272 2013-03-07 01:48:15 /0506/cond-mat.0506046 130000[\@affiliation, \onefigure].
127273 2013-03-07 01:47:51 /0506/cond-mat.0506030 130000[\extrasenglish, \dateenglish, \captionsenglish].
127274 2013-03-07 01:47:49 /0506/cond-mat.0506032 030000[\extrasenglish, \dateenglish, \captionsenglish].
127275 2013-03-07 01:47:13 /0506/astro-ph.0506768 7120000[\citeauthoryear, \opencite, \surname, \institute, {opening}, {article}, \keywords, \newdisplay, \citeauthor, \runningauthor, \acknowledgements, \inlinecite].
127276 2013-03-07 01:47:08 /0506/astro-ph.0506767 010000[\al@[].
127277 2013-03-07 01:46:54 /0506/astro-ph.0506718 230000[\theappendix].
127278 2013-03-07 01:46:48 /0506/cond-mat.0506005 130000[\@affiliation].
127279 2013-03-07 01:46:35 /0506/astro-ph.0506751 20010000[\al@[].
127280 2013-03-07 01:46:30 /0506/astro-ph.0506755 730000[\presenter, \newauthor, \unit]; 1 missing file[icrc29.cls].
127281 2013-03-07 01:46:24 /0506/astro-ph.0506758 140000[\presenter, \U, \UU]; 2 missing files[icrc29.cls, unites2e.sty].
127282 2013-03-07 01:46:23 /0506/astro-ph.0506760 0140000[\arcmin, \affil, \apj, \aj, \tableline, \mnras, \pasp, \plotone, \arcsec, \fs, \fdg, \farcs, \acknowledgements]; 1 missing file[cozumel2005.sty].
127283 2013-03-07 01:46:20 /0506/astro-ph.0506704 4910000[\mg].
127284 2013-03-07 01:46:18 /0506/astro-ph.0506746 3120000[\lesssim, \altaffilmark, \Received, \Accepted, \email, \FigureFile, \arcsec, \altaffiltext, \degree, \farcs, \SetRunningHead, \KeyWords]; 1 missing file[pasj00.cls].
127285 2013-03-07 01:46:11 /0506/astro-ph.0506744 470000[\editors, \affiliation, \jname, \pagerange, \keywords, \volume, \pubyear]; 1 missing file[iaus.cls].
127286 2013-03-07 01:45:21 /0506/astro-ph.0506729 3910000[\theappendix].
127287 2013-03-07 01:44:54 /0506/astro-ph.0506713 010000[\theappendix].
127288 2013-03-07 01:44:38 /0506/astro-ph.0506720 020000[{theacknowledgments}, \layoutstyle].
127289 2013-03-07 01:44:36 /0506/astro-ph.0506702 340000[\epsfbox, \epsfxsize].
127290 2013-03-07 01:44:20 /0506/astro-ph.0506696 470000[{tablenotes}, \tnote, {threeparttable}]; 1 missing file[threeparttable.sty].
127291 2013-03-07 01:44:07 /0506/astro-ph.0506700 10120000[{acknowledgments}, \lesssim, \editors, \affiliation, \keywords, \volume, \firstsection, \gtrsim, \pagerange, \jname, \etal, \pubyear]; 1 missing file[iauc.cls].
127292 2013-03-07 01:43:59 /0506/astro-ph.0506701 690000[{acknowledgments}, \firstsection, \editors, \affiliation, \jname, \pagerange, \keywords, \volume, \pubyear]; 1 missing file[iauc.cls].
127293 2013-03-07 01:43:47 /0506/astro-ph.0506672 640000[\epsfbox, \submitted, \epsfxsize]; 1 missing file[apjfonts.sty].
127294 2013-03-07 01:43:35 /0506/astro-ph.0506689 040000[\citeauthoryear, \psfig]; 1 missing file[psfig].
127295 2013-03-07 01:43:26 /0506/astro-ph.0506668 1510000[\theappendix].
127296 2013-03-07 01:43:22 /0506/astro-ph.0506660 2330000[\epsffile, \epsfxsize]; 1 missing file[onecolfloat.sty].
127297 2013-03-07 01:42:38 /0506/astro-ph.0506651 020000[\balance]; 1 missing file[balance.sty].
127298 2013-03-07 01:42:34 /0506/astro-ph.0506659 310000[\citeauthoryear].
127299 2013-03-07 01:41:30 /0506/astro-ph.0506622 2210000[\theappendix].
127300 2013-03-07 01:41:23 /0506/astro-ph.0506632 5180000[\apj, \citep, \pasj, \aap, \procspie, \Accepted, \email, \araa, \KeyWords, \aj, \altaffilmark, \Received, Align, \mnras, \FigureFile, \citet, \altaffiltext, \SetRunningHead]; 1 missing file[pasj00.cls].
127301 2013-03-07 01:41:00 /0506/astro-ph.0506637 030000[\extrasenglish, \dateenglish, \captionsenglish].
127302 2013-03-07 01:40:42 /0506/astro-ph.0506626 010000[\citeauthoryear].
127303 2013-03-07 01:40:18 /0506/astro-ph.0506606 6810000[\theappendix].
127304 2013-03-07 01:40:00 /0506/astro-ph.0506613 120000[{keywords}, \PARstart]; 1 missing file[IEEEtran_nssmic.cls].
127305 2013-03-07 01:39:55 /0506/astro-ph.0506617 530000[\theappendix, \pcite]; 1 missing file[mnras_cite.sty].
127306 2013-03-07 01:39:35 /0506/astro-ph.0506597 490000[\affil, \mnras, \apj, \aj, \plotfiddle, \nat, \aap, \plottwo]; 1 missing file[asp2004.sty].
127307 2013-03-07 01:39:21 /0506/astro-ph.0506598 110000[\presenter]; 1 missing file[icrc29.cls].
127308 2013-03-07 01:39:04 /0506/astro-ph.0506559 47450000[Align, {subeqnarray}]; 1 missing file[chapterbib.sty].
127309 2013-03-07 01:39:00 /0506/astro-ph.0506595 13400000[\affil, \draft, \endfirsthead, {longtable}, \Received, Align, \Accepted, \email, \FigureFile, \SetRunningHead, \KeyWords]; 1 missing file[pasj00.cls].
127310 2013-03-07 01:38:46 /0506/astro-ph.0506577 2010000[\psfig].
127311 2013-03-07 01:38:23 /0506/astro-ph.0506583 14130000[\colhead, \nodata, \tablenotetext, \tablehead, \tablewidth, {deluxetable}, Align, \startdata, \tablecaption, \tablenotemark, \enddata]; 2 missing files[deluxetable.sty, aalongtable.sty].
127312 2013-03-07 01:38:08 /0506/astro-ph.0506573 1830000[\submitted]; 2 missing files[apjfonts.sty, onecolfloat.sty].
127313 2013-03-07 01:37:34 /0506/astro-ph.0506567 050000[\affil, \mnras, \apj, \araa]; 1 missing file[asp2004.sty].
127314 2013-03-07 01:36:37 /0506/astro-ph.0506547 1240000[\submitted]; 3 missing files[apjfonts.sty, onecolfloat.sty, aalongtable.sty].
127315 2013-03-07 01:36:33 /0506/astro-ph.0506562 0200000[\apj, \boldabstract, \apjl, \suppressfulladdresses, \extrasenglish, \SetYear, \email, \SetConfTitle, \indexauthor, \aj, \altaffilmark, \dateenglish, \apjs, \listofauthors, \mnras, \ion, \addkeyword, \altaffiltext, \acknowledgements, \captionsenglish].
127316 2013-03-07 01:36:23 /0506/astro-ph.0506546 010000[\address].
127317 2013-03-07 01:35:50 /0506/astro-ph.0506553 2090000[{acknowledgments}, \firstsection, \editors, \affiliation, \jname, \pagerange, \keywords, \volume, \pubyear]; 1 missing file[iaus.cls].
127318 2013-03-07 01:35:07 /0506/astro-ph.0506527 740000[\affiliation, \psfig, \acknowledgements]; 1 missing file[jfm.sty].
127319 2013-03-07 01:35:07 /0506/astro-ph.0506544 180000[\endfoot, Align, \endhead, \endfirsthead, {longtable}]; 1 missing file[aalongtable.sty].
127320 2013-03-07 01:34:09 /0506/astro-ph.0506517 1170000[\affil, \aj, \citep, \aaps, \tableline, \aap, \mnras, \pasp, \plotone, \citet, \acknowledgements]; 1 missing file[cozumel2005.sty].
127321 2013-03-07 01:33:45 /0506/astro-ph.0506491 910000[\tableheadfrac].
127322 2013-03-07 01:33:43 /0506/astro-ph.0506508 610000[\affil]; 1 missing file[esapub.cls].
127323 2013-03-07 01:33:40 /0506/astro-ph.0506507 290000[{acknowledgments}, \firstsection, \editors, \affiliation, \jname, \pagerange, \keywords, \volume, \pubyear]; 1 missing file[iaus.cls].
127324 2013-03-07 01:33:39 /0506/astro-ph.0506509 110000[\affil]; 1 missing file[esapub.cls].
127325 2013-03-07 01:32:48 /0506/astro-ph.0506486 140000[\citeauthoryear, \citeN, \citeNP]; 1 missing file[astrobib.sty].
127326 2013-03-07 01:32:37 /0506/astro-ph.0506487 050000[\extrasenglish, \nofiles, \dateenglish, \captionsenglish]; 1 missing file[pslatex.sty].
127327 2013-03-07 01:32:35 /0506/astro-ph.0506492 15440000[\slabel, Align, {subeqnarray}].
127328 2013-03-07 01:32:27 /0506/astro-ph.0506488 090000[\arcmin, \affil, \apj, \plotone, \arcsec, \acknowledgements]; 1 missing file[cozumel2005.sty].
127329 2013-03-07 01:32:11 /0506/astro-ph.0506477 150000[\astroncite, \institute, {acknowledgements}, \la, \keywords]; 1 missing file[ESLAB2005.cls].
127330 2013-03-07 01:32:03 /0506/astro-ph.0506462 12010000[\ltapp].
127331 2013-03-07 01:31:59 /0506/astro-ph.0506481 480000[{acknowledgments}, \firstsection, \editors, \affiliation, \jname, \pagerange, \volume, \pubyear]; 1 missing file[iauc.cls].
127332 2013-03-07 01:31:58 /0506/astro-ph.0506480 0130000[\endpage, \runningtitle, \keywords, \address, \epsfbox, \reference, \beginpage, \runningauthor, {references}, \acknowledgements, \epsfysize]; 1 missing file[jkas_eama6.sty].
127333 2013-03-07 01:31:38 /0506/astro-ph.0506454 910000[\harvarditem].
127334 2013-03-07 01:31:33 /0506/astro-ph.0506469 070000[\surname, \runningauthor, \institute, {opening}, {article}, \keywords, \newdisplay].
127335 2013-03-07 01:31:14 /0506/astro-ph.0506459 730000[\abstracts, \Title, \makeauthor].
127336 2013-03-07 01:31:13 /0506/astro-ph.0506460 0290000[\affil, \apj, \citep, \apjl, \aap, \pasp, \araa, \citeauthoryear, \aj, \citealp, \citealt, \mnras, \plotone, \citet, \acknowledgements, \plottwo]; 1 missing file[cozumel2005.sty].
127337 2013-03-07 01:31:10 /0506/astro-ph.0506450 2200000[{acknowledgments}, \ls, \iffontfound, \ifCUPmtlplainloaded, \affiliation, \ns, \volume, \pagerange, \checkfont, \pubyear]; 1 missing file[jfm.cls].
127338 2013-03-07 01:31:04 /0506/astro-ph.0506435 110000[\subsubsubsection].
127339 2013-03-07 01:31:03 /0506/astro-ph.0506443 410000[\pasa].
127340 2013-03-07 01:30:54 /0506/astro-ph.0506440 410000[\sq].
127341 2013-03-07 01:30:50 /0506/astro-ph.0506446 290000[{acknowledgments}, \editors, \affiliation, \keywords, \volume, \pagerange, \jname, \etal, \pubyear]; 1 missing file[iaus.cls].
127342 2013-03-07 01:30:41 /0506/astro-ph.0506448 1110000[\PACSes, \BY, \atque, \acknowledgments, \PACSit, \from, \ETC, \NAME, \TITLE, \IN, \instlist].
127343 2013-03-07 01:30:29 /0506/astro-ph.0506434 810000[\tableheadfrac].
127344 2013-03-07 01:30:06 /0506/astro-ph.0506402 1410000[\theappendix].
127345 2013-03-07 01:30:06 /0506/astro-ph.0506424 10220000[{turnpage}].
127346 2013-03-07 01:29:08 /0506/astro-ph.0506428 4300000[\affil, \RescaleTitleLengths, \ReceivedDate, \tablecols, \acknowledgments, \tabnotemark, \extrasenglish, \SetFirstPage, \SetYear, \adjustfinalcols, \shorttitle, \toprule, \bottomrule, \indexauthor, \nodata, \midrule, \shortauthor, \tabnotetext, \dateengl
127347 2013-03-07 01:28:57 /0506/astro-ph.0506430 0140000[\affil, \apj, \aj, \tablenotetext, \citep, \aaps, \tableline, \aap, \mnras, \citet, \tablenotemark, \araa, \acknowledgements]; 1 missing file[cozumel2005.sty].
127348 2013-03-07 01:28:55 /0506/astro-ph.0506429 0280000[\citeauthoryear, \affil, \apj, \aj, \citep, \aaps, \tableline, \apjl, \plotfiddle, \aap, \mnras, \plotone, \citet, \acknowledgements, \plottwo]; 1 missing file[cozumel2005.sty].
127349 2013-03-07 01:28:45 /0506/astro-ph.0506414 110000[\theappendix].
127350 2013-03-07 01:28:40 /0506/astro-ph.0506415 28140000[\tablerefs, \colhead, \tablenum, \tablenotetext, \tablehead, \tablecolumns, \rotate, \tablewidth, {deluxetable}, \startdata, Align, \tablecaption, \enddata]; 1 missing file[deluxetable.sty].
127351 2013-03-07 01:28:19 /0506/astro-ph.0506413 0230000[\citeauthoryear, \affil, \apj, \aj, \citep, \aaps, \apjl, \aap, \la, \keywords, \citealt, \apjs, \mnras, \pasp, \araa]; 1 missing file[cozumel2005.sty].
127352 2013-03-07 01:28:02 /0506/astro-ph.0506418 190000[{acknowledgments}, \firstsection, \editors, \affiliation, \jname, \pagerange, \volume, \pubyear, \etal]; 1 missing file[iaus.cls].
127353 2013-03-07 01:27:58 /0506/astro-ph.0506420 2200000[\affil, \plotone]; 1 missing file[cozumel2005.sty].
127354 2013-03-07 01:27:57 /0506/astro-ph.0506405 17810000[\theappendix].
127355 2013-03-07 01:26:22 /0506/astro-ph.0506370 290000[\jcap].
127356 2013-03-07 01:26:19 /0506/astro-ph.0506385 080000[\PACSes, \BY, \IN, \atque, \acknowledgments, \PACSit, \instlist, \from].
127357 2013-03-07 01:26:14 /0506/astro-ph.0506373 4110000[\theappendix].
127358 2013-03-07 01:26:13 /0506/astro-ph.0506343 910000[{sidewaystable*}].
127359 2013-03-07 01:25:46 /0506/astro-ph.0506391 0120000[\affil, \apj, \aj, \citep, \aaps, \tableline, \aap, \acknowledgments, \mnras, \plotone, \citet]; 1 missing file[asp2004.sty].
127360 2013-03-07 01:25:40 /0506/astro-ph.0506379 630000[{sidewaystable*}].
127361 2013-03-07 01:25:11 /0506/astro-ph.0506381 2150000[\arcmin, \affil, \plotone, \ga, \plottwo, \la]; 1 missing file[cozumel2005.sty].
127362 2013-03-07 01:24:50 /0506/astro-ph.0506338 810000[\theappendix].
127363 2013-03-07 01:24:39 /0506/astro-ph.0506358 1810000[\subsubsubsection].
127364 2013-03-07 01:24:26 /0506/astro-ph.0506349 280000[{acknowledgments}, \editors, \affiliation, \jname, \pagerange, \keywords, \volume, \pubyear]; 1 missing file[iaus.cls].
127365 2013-03-07 01:24:04 /0506/astro-ph.0506322 5200000[\copyrightpage, \startacknowledgementspage, \dedicationpage, \unnumberedpage, \initializefrontsections, \startthechapters, \startabstractpage]; 2 missing files[rackham.sty, dbl12.sty].
127366 2013-03-07 01:23:50 /0506/astro-ph.0506333 010000[\theappendix].
127367 2013-03-07 01:23:47 /0506/astro-ph.0506347 230000[\theappendix].
127368 2013-03-07 01:23:33 /0506/astro-ph.0506329 440000[\kword, \abst, \inst, \recdate].
127369 2013-03-07 01:23:14 /0506/astro-ph.0506308 470000[{keywords}, \PARstart, {biography}, \IEEEpeerreviewmaketitle]; 1 missing file[IEEEtran.cls].
127370 2013-03-07 01:22:49 /0506/astro-ph.0506324 280000[{acknowledgments}, \editors, \affiliation, \jname, \pagerange, \keywords, \volume, \pubyear]; 1 missing file[iaus.cls].
127371 2013-03-07 01:22:45 /0506/astro-ph.0506327 890000[{acknowledgments}, \firstsection, \editors, \affiliation, \jname, \pagerange, \keywords, \volume, \pubyear]; 1 missing file[iaus.cls].
127372 2013-03-07 01:22:39 /0506/astro-ph.0506309 0230000[\apj, \ga, \extrasenglish, \SetYear, \shorttitle, \email, \SetConfTitle, \indexauthor, \shortauthor, \altaffilmark, \dateenglish, \la, \mnras, \listofauthors, \ion, \addkeyword, \altaffiltext, \acknowledgements, \fulladdresses, \captionsenglish].
127373 2013-03-07 01:22:35 /0506/astro-ph.0506313 140000[\abstracts]; 1 missing file[ws.sty].
127374 2013-03-07 01:22:10 /0506/astro-ph.0506305 010000[\citeauthoryear].
127375 2013-03-07 01:22:07 /0506/astro-ph.0506303 390000[\editors, \affiliation, \keywords, \volume, \firstsection, \pagerange, \jname, \etal, \pubyear]; 1 missing file[iaus.cls].
127376 2013-03-07 01:22:03 /0506/astro-ph.0506290 0160000[\affil, \resumen, \ReceivedDate, \shortauthor, \dateenglish, \altaffilmark, \extrasenglish, \SetFirstPage, \SetYear, \shorttitle, \SetVolume, \altaffiltext, \AcceptedDate, \fulladdresses, \captionsenglish].
127377 2013-03-07 01:21:52 /0506/astro-ph.0506273 120000[\theappendix, {sidewaystable*}].
127378 2013-03-07 01:21:46 /0506/astro-ph.0506286 810000[\theappendix].
127379 2013-03-07 01:21:45 /0506/astro-ph.0506278 460000[\citealt, \affil, \citep, \citet, \acknowledgements]; 1 missing file[cozumel2005.sty].
127380 2013-03-07 01:21:38 /0506/astro-ph.0506283 080000[\citealt, \affil, \citep, \arcsec, \citet, \acknowledgements, \farcs]; 1 missing file[cozumel2005.sty].
127381 2013-03-07 01:21:22 /0506/astro-ph.0506285 2110000[{acknowledgments}, \lesssim, \editors, \affiliation, \keywords, \volume, \firstsection, \gtrsim, \pagerange, \jname, \pubyear]; 1 missing file[iaus.cls].
127382 2013-03-07 01:21:09 /0506/astro-ph.0506249 310000[\citeauthoryear].
127383 2013-03-07 01:21:07 /0506/astro-ph.0506256 6100000[\comby, \catchline, \accepted, \psfig, \refcite, \keywords, {history}, \revised, \received]; 1 missing file[ws.sty].
127384 2013-03-07 01:20:50 /0506/astro-ph.0506247 420000[\epsfbox, \epsfxsize].
127385 2013-03-07 01:20:34 /0506/astro-ph.0506206 2610000[\theappendix].
127386 2013-03-07 01:20:32 /0506/astro-ph.0506250 1350000[\lesssim, \tablecols, \SetYear, \pasp, \araa, \bottomrule, \midrule, \shortauthor, \apss, \dateenglish, \listofauthors, \addkeyword, \acknowledgements, \fulladdresses, \apj, \aaps, \aap, \tabnotemark, \extrasenglish, \shorttitle, \adjustfinalcols, \SetCo
127387 2013-03-07 01:20:25 /0506/astro-ph.0506239 1450000[\theappendix, \inst, \correspondence, \institute, {acknowledgements}].
127388 2013-03-07 01:20:23 /0506/astro-ph.0506235 090000[\PACSes, \ETC, \BY, \IN, \atque, \acknowledgments, \PACSit, \instlist, \from].
127389 2013-03-07 01:20:18 /0506/astro-ph.0506242 010000[\nar].
127390 2013-03-07 01:20:15 /0506/astro-ph.0506210 410000[\pasa].
127391 2013-03-07 01:20:15 /0506/astro-ph.0506236 0120000[\PACSes, \BY, \atque, \psfig, \acknowledgments, \PACSit, \from, \ETC, \IN, \instlist].
127392 2013-03-07 01:19:55 /0506/astro-ph.0506229 130000[\citefmt, \scite]; 1 missing file[mncite.sty].
127393 2013-03-07 01:19:27 /0506/astro-ph.0506233 090000[\PACSes, \ETC, \BY, \IN, \atque, \acknowledgments, \PACSit, \instlist, \from].
127394 2013-03-07 01:19:25 /0506/astro-ph.0506234 0100000[\PACSes, \BY, \atque, \acknowledgments, \PACSit, \from, \ETC, \shorttitle, \IN, \instlist].
127395 2013-03-07 01:19:17 /0506/astro-ph.0506219 110000[\psfrag].
127396 2013-03-07 01:18:51 /0506/astro-ph.0506187 010000[\icarus].
127397 2013-03-07 01:17:59 /0506/astro-ph.0506183 610000[\actaa].
127398 2013-03-07 01:17:52 /0506/astro-ph.0506198 240000[\PACSes, \?, \acknowledgments, \instlist].
127399 2013-03-07 01:17:51 /0506/astro-ph.0506195 790000[\editors, \affiliation, \keywords, \volume, \firstsection, \pagerange, \jname, \pubyear, \etal]; 1 missing file[iauc.cls].
127400 2013-03-07 01:17:47 /0506/astro-ph.0506197 180000[\gtrsim, \editors, \affiliation, \jname, \pagerange, \keywords, \volume, \pubyear]; 1 missing file[iauc.cls].
<<< >>>

[0] [200] [400] [600] [800] [1000] [1200] [1400] [1600] [1800] [2000] [2200] [2400] [2600] [2800] [3000] [3200] [3400] [3600] [3800] [4000] [4200] [4400] [4600] [4800] [5000] [5200] [5400] [5600] [5800] [6000] [6200] [6400] [6600] [6800] [7000] [7200] [7400] [7600] [7800] [8000] [8200] [8400] [8600] [8800] [9000] [9200] [9400] [9600] [9800] [10000] [10200] [10400] [10600] [10800] [11000] [11200] [11400] [11600] [11800] [12000] [12200] [12400] [12600] [12800] [13000] [13200] [13400] [13600] [13800] [14000] [14200] [14400] [14600] [14800] [15000] [15200] [15400] [15600] [15800] [16000] [16200] [16400] [16600] [16800] [17000] [17200] [17400] [17600] [17800] [18000] [18200] [18400] [18600] [18800] [19000] [19200] [19400] [19600] [19800] [20000] [20200] [20400] [20600] [20800] [21000] [21200] [21400] [21600] [21800] [22000] [22200] [22400] [22600] [22800] [23000] [23200] [23400] [23600] [23800] [24000] [24200] [24400] [24600] [24800] [25000] [25200] [25400] [25600] [25800] [26000] [26200] [26400] [26600] [26800] [27000] [27200] [27400] [27600] [27800] [28000] [28200] [28400] [28600] [28800] [29000] [29200] [29400] [29600] [29800] [30000] [30200] [30400] [30600] [30800] [31000] [31200] [31400] [31600] [31800] [32000] [32200] [32400] [32600] [32800] [33000] [33200] [33400] [33600] [33800] [34000] [34200] [34400] [34600] [34800] [35000] [35200] [35400] [35600] [35800] [36000] [36200] [36400] [36600] [36800] [37000] [37200] [37400] [37600] [37800] [38000] [38200] [38400] [38600] [38800] [39000] [39200] [39400] [39600] [39800] [40000] [40200] [40400] [40600] [40800] [41000] [41200] [41400] [41600] [41800] [42000] [42200] [42400] [42600] [42800] [43000] [43200] [43400] [43600] [43800] [44000] [44200] [44400] [44600] [44800] [45000] [45200] [45400] [45600] [45800] [46000] [46200] [46400] [46600] [46800] [47000] [47200] [47400] [47600] [47800] [48000] [48200] [48400] [48600] [48800] [49000] [49200] [49400] [49600] [49800] [50000] [50200] [50400] [50600] [50800] [51000] [51200] [51400] [51600] [51800] [52000] [52200] [52400] [52600] [52800] [53000] [53200] [53400] [53600] [53800] [54000] [54200] [54400] [54600] [54800] [55000] [55200] [55400] [55600] [55800] [56000] [56200] [56400] [56600] [56800] [57000] [57200] [57400] [57600] [57800] [58000] [58200] [58400] [58600] [58800] [59000] [59200] [59400] [59600] [59800] [60000] [60200] [60400] [60600] [60800] [61000] [61200] [61400] [61600] [61800] [62000] [62200] [62400] [62600] [62800] [63000] [63200] [63400] [63600] [63800] [64000] [64200] [64400] [64600] [64800] [65000] [65200] [65400] [65600] [65800] [66000] [66200] [66400] [66600] [66800] [67000] [67200] [67400] [67600] [67800] [68000] [68200] [68400] [68600] [68800] [69000] [69200] [69400] [69600] [69800] [70000] [70200] [70400] [70600] [70800] [71000] [71200] [71400] [71600] [71800] [72000] [72200] [72400] [72600] [72800] [73000] [73200] [73400] [73600] [73800] [74000] [74200] [74400] [74600] [74800] [75000] [75200] [75400] [75600] [75800] [76000] [76200] [76400] [76600] [76800] [77000] [77200] [77400] [77600] [77800] [78000] [78200] [78400] [78600] [78800] [79000] [79200] [79400] [79600] [79800] [80000] [80200] [80400] [80600] [80800] [81000] [81200] [81400] [81600] [81800] [82000] [82200] [82400] [82600] [82800] [83000] [83200] [83400] [83600] [83800] [84000] [84200] [84400] [84600] [84800] [85000] [85200] [85400] [85600] [85800] [86000] [86200] [86400] [86600] [86800] [87000] [87200] [87400] [87600] [87800] [88000] [88200] [88400] [88600] [88800] [89000] [89200] [89400] [89600] [89800] [90000] [90200] [90400] [90600] [90800] [91000] [91200] [91400] [91600] [91800] [92000] [92200] [92400] [92600] [92800] [93000] [93200] [93400] [93600] [93800] [94000] [94200] [94400] [94600] [94800] [95000] [95200] [95400] [95600] [95800] [96000] [96200] [96400] [96600] [96800] [97000] [97200] [97400] [97600] [97800] [98000] [98200] [98400] [98600] [98800] [99000] [99200] [99400] [99600] [99800] [100000] [100200] [100400] [100600] [100800] [101000] [101200] [101400] [101600] [101800] [102000] [102200] [102400] [102600] [102800] [103000] [103200] [103400] [103600] [103800] [104000] [104200] [104400] [104600] [104800] [105000] [105200] [105400] [105600] [105800] [106000] [106200] [106400] [106600] [106800] [107000] [107200] [107400] [107600] [107800] [108000] [108200] [108400] [108600] [108800] [109000] [109200] [109400] [109600] [109800] [110000] [110200] [110400] [110600] [110800] [111000] [111200] [111400] [111600] [111800] [112000] [112200] [112400] [112600] [112800] [113000] [113200] [113400] [113600] [113800] [114000] [114200] [114400] [114600] [114800] [115000] [115200] [115400] [115600] [115800] [116000] [116200] [116400] [116600] [116800] [117000] [117200] [117400] [117600] [117800] [118000] [118200] [118400] [118600] [118800] [119000] [119200] [119400] [119600] [119800] [120000] [120200] [120400] [120600] [120800] [121000] [121200] [121400] [121600] [121800] [122000] [122200] [122400] [122600] [122800] [123000] [123200] [123400] [123600] [123800] [124000] [124200] [124400] [124600] [124800] [125000] [125200] [125400] [125600] [125800] [126000] [126200] [126400] [126600] [126800] [127000] [127200] [127400] [127600] [127800] [128000] [128200] [128400] [128600] [128800] [129000] [129200] [129400] [129600] [129800] [130000] [130200] [130400] [130600] [130800] [131000] [131200] [131400] [131600] [131800] [132000] [132200] [132400] [132600] [132800] [133000] [133200] [133400] [133600] [133800] [134000] [134200] [134400] [134600] [134800] [135000] [135200] [135400] [135600] [135800] [136000] [136200] [136400] [136600] [136800] [137000] [137200] [137400] [137600] [137800] [138000] [138200] [138400] [138600] [138800] [139000] [139200] [139400] [139600] [139800] [140000] [140200] [140400] [140600] [140800] [141000] [141200] [141400] [141600] [141800] [142000] [142200] [142400] [142600] [142800] [143000] [143200] [143400] [143600] [143800] [144000] [144200] [144400] [144600] [144800] [145000] [145200] [145400] [145600] [145800] [146000] [146200] [146400] [146600] [146800] [147000] [147200] [147400] [147600] [147800] [148000] [148200] [148400] [148600] [148800] [149000] [149200] [149400] [149600] [149800] [150000] [150200] [150400] [150600] [150800] [151000] [151200] [151400] [151600] [151800] [152000] [152200] [152400] [152600] [152800] [153000] [153200] [153400] [153600] [153800] [154000] [154200] [154400] [154600] [154800] [155000] [155200] [155400] [155600] [155800] [156000] [156200] [156400] [156600] [156800] [157000] [157200] [157400] [157600] [157800] [158000] [158200] [158400] [158600] [158800] [159000] [159200] [159400] [159600] [159800] [160000] [160200] [160400] [160600] [160800] [161000] [161200] [161400] [161600] [161800] [162000] [162200] [162400] [162600] [162800] [163000] [163200] [163400] [163600] [163800] [164000] [164200] [164400] [164600]
 
  The service has been written by
Heinrich Stamerjohanns